sensor_id;sensor_type;location;lat;lon;timestamp;P1;durP1;ratioP1;P2;durP2;ratioP2
6374;SDS011;35400;45.472;-122.822;2022-09-21T00:01:04;3.42;;;2.03;;
6374;SDS011;35400;45.472;-122.822;2022-09-21T00:03:35;4.07;;;2.55;;
6374;SDS011;35400;45.472;-122.822;2022-09-21T00:06:07;2.15;;;2.03;;
6374;SDS011;35400;45.472;-122.822;2022-09-21T00:08:39;2.55;;;1.85;;
6374;SDS011;35400;45.472;-122.822;2022-09-21T00:11:06;2.75;;;2.38;;
6374;SDS011;35400;45.472;-122.822;2022-09-21T00:13:36;3.33;;;2.03;;
6374;SDS011;35400;45.472;-122.822;2022-09-21T00:16:06;3.65;;;2.10;;
6374;SDS011;35400;45.472;-122.822;2022-09-21T00:18:34;2.30;;;2.10;;
6374;SDS011;35400;45.472;-122.822;2022-09-21T00:21:05;2.72;;;2.53;;
6374;SDS011;35400;45.472;-122.822;2022-09-21T00:23:36;2.75;;;2.08;;
6374;SDS011;35400;45.472;-122.822;2022-09-21T00:26:04;2.40;;;2.20;;
6374;SDS011;35400;45.472;-122.822;2022-09-21T00:28:33;2.47;;;2.17;;
6374;SDS011;35400;45.472;-122.822;2022-09-21T00:31:00;3.35;;;2.13;;
6374;SDS011;35400;45.472;-122.822;2022-09-21T00:33:29;4.18;;;1.92;;
6374;SDS011;35400;45.472;-122.822;2022-09-21T00:36:00;2.03;;;1.90;;
6374;SDS011;35400;45.472;-122.822;2022-09-21T00:38:31;2.03;;;1.92;;
6374;SDS011;35400;45.472;-122.822;2022-09-21T00:40:58;2.05;;;1.95;;
6374;SDS011;35400;45.472;-122.822;2022-09-21T00:43:25;2.70;;;2.50;;
6374;SDS011;35400;45.472;-122.822;2022-09-21T00:46:02;2.42;;;2.22;;
6374;SDS011;35400;45.472;-122.822;2022-09-21T00:48:33;4.47;;;2.25;;
6374;SDS011;35400;45.472;-122.822;2022-09-21T00:51:01;5.53;;;2.30;;
6374;SDS011;35400;45.472;-122.822;2022-09-21T00:53:31;5.63;;;2.33;;
6374;SDS011;35400;45.472;-122.822;2022-09-21T00:55:58;3.92;;;2.05;;
6374;SDS011;35400;45.472;-122.822;2022-09-21T00:58:28;3.90;;;2.38;;
6374;SDS011;35400;45.472;-122.822;2022-09-21T01:01:00;4.43;;;2.15;;
6374;SDS011;35400;45.472;-122.822;2022-09-21T01:03:28;2.35;;;2.15;;
6374;SDS011;35400;45.472;-122.822;2022-09-21T01:05:56;3.42;;;2.30;;
6374;SDS011;35400;45.472;-122.822;2022-09-21T01:08:24;4.32;;;2.70;;
6374;SDS011;35400;45.472;-122.822;2022-09-21T01:22:26;3.65;;;2.47;;
6374;SDS011;35400;45.472;-122.822;2022-09-21T01:25:04;2.70;;;2.50;;
6374;SDS011;35400;45.472;-122.822;2022-09-21T01:27:56;3.80;;;2.65;;
6374;SDS011;35400;45.472;-122.822;2022-09-21T01:30:32;3.72;;;2.03;;
6374;SDS011;35400;45.472;-122.822;2022-09-21T01:35:47;4.68;;;2.65;;
6374;SDS011;35400;45.472;-122.822;2022-09-21T01:38:40;2.92;;;2.35;;
6374;SDS011;35400;45.472;-122.822;2022-09-21T01:41:15;3.72;;;2.38;;
6374;SDS011;35400;45.472;-122.822;2022-09-21T01:43:46;4.22;;;2.75;;
6374;SDS011;35400;45.472;-122.822;2022-09-21T01:46:18;4.03;;;2.30;;
6374;SDS011;35400;45.472;-122.822;2022-09-21T01:48:49;3.08;;;2.10;;
6374;SDS011;35400;45.472;-122.822;2022-09-21T01:51:19;4.93;;;2.40;;
6374;SDS011;35400;45.472;-122.822;2022-09-21T01:53:48;3.60;;;2.03;;
6374;SDS011;35400;45.472;-122.822;2022-09-21T01:56:31;5.63;;;2.30;;
6374;SDS011;35400;45.472;-122.822;2022-09-21T02:01:40;5.13;;;2.60;;
6374;SDS011;35400;45.472;-122.822;2022-09-21T02:04:12;4.82;;;2.42;;
6374;SDS011;35400;45.472;-122.822;2022-09-21T02:06:43;5.38;;;2.75;;
6374;SDS011;35400;45.472;-122.822;2022-09-21T02:09:12;5.53;;;3.05;;
6374;SDS011;35400;45.472;-122.822;2022-09-21T02:11:39;5.78;;;2.38;;
6374;SDS011;35400;45.472;-122.822;2022-09-21T02:14:12;4.60;;;2.47;;
6374;SDS011;35400;45.472;-122.822;2022-09-21T02:16:49;6.45;;;2.80;;
6374;SDS011;35400;45.472;-122.822;2022-09-21T02:22:23;5.20;;;3.50;;
6374;SDS011;35400;45.472;-122.822;2022-09-21T02:25:13;8.25;;;4.05;;
6374;SDS011;35400;45.472;-122.822;2022-09-21T02:27:44;6.25;;;3.90;;
6374;SDS011;35400;45.472;-122.822;2022-09-21T02:30:24;7.03;;;4.32;;
6374;SDS011;35400;45.472;-122.822;2022-09-21T02:35:57;5.22;;;3.97;;
6374;SDS011;35400;45.472;-122.822;2022-09-21T02:38:46;6.68;;;3.78;;
6374;SDS011;35400;45.472;-122.822;2022-09-21T02:44:05;4.55;;;3.38;;
6374;SDS011;35400;45.472;-122.822;2022-09-21T02:49:03;5.85;;;3.22;;
6374;SDS011;35400;45.472;-122.822;2022-09-21T02:51:52;5.20;;;3.15;;
6374;SDS011;35400;45.472;-122.822;2022-09-21T02:54:25;4.47;;;3.05;;
6374;SDS011;35400;45.472;-122.822;2022-09-21T02:56:56;3.78;;;2.95;;
6374;SDS011;35400;45.472;-122.822;2022-09-21T02:59:25;6.53;;;3.25;;
6374;SDS011;35400;45.472;-122.822;2022-09-21T03:01:52;3.97;;;3.25;;
6374;SDS011;35400;45.472;-122.822;2022-09-21T03:04:22;3.83;;;3.15;;
6374;SDS011;35400;45.472;-122.822;2022-09-21T03:06:50;4.82;;;2.78;;
6374;SDS011;35400;45.472;-122.822;2022-09-21T03:09:17;3.40;;;2.83;;
6374;SDS011;35400;45.472;-122.822;2022-09-21T03:11:45;5.75;;;3.30;;
6374;SDS011;35400;45.472;-122.822;2022-09-21T03:14:12;3.85;;;3.13;;
6374;SDS011;35400;45.472;-122.822;2022-09-21T03:16:39;4.70;;;2.85;;
6374;SDS011;35400;45.472;-122.822;2022-09-21T03:19:06;3.88;;;2.75;;
6374;SDS011;35400;45.472;-122.822;2022-09-21T03:21:33;5.22;;;3.17;;
6374;SDS011;35400;45.472;-122.822;2022-09-21T03:24:00;4.75;;;3.03;;
6374;SDS011;35400;45.472;-122.822;2022-09-21T03:26:27;4.45;;;2.75;;
6374;SDS011;35400;45.472;-122.822;2022-09-21T03:28:54;5.57;;;2.65;;
6374;SDS011;35400;45.472;-122.822;2022-09-21T03:31:21;4.40;;;3.17;;
6374;SDS011;35400;45.472;-122.822;2022-09-21T03:33:47;4.93;;;2.90;;
6374;SDS011;35400;45.472;-122.822;2022-09-21T03:36:15;5.22;;;3.13;;
6374;SDS011;35400;45.472;-122.822;2022-09-21T03:38:42;3.45;;;2.80;;
6374;SDS011;35400;45.472;-122.822;2022-09-21T03:41:09;3.03;;;2.72;;
6374;SDS011;35400;45.472;-122.822;2022-09-21T03:43:35;5.43;;;3.00;;
6374;SDS011;35400;45.472;-122.822;2022-09-21T03:46:02;5.78;;;3.22;;
6374;SDS011;35400;45.472;-122.822;2022-09-21T03:48:29;5.63;;;3.30;;
6374;SDS011;35400;45.472;-122.822;2022-09-21T03:50:57;4.70;;;2.90;;
6374;SDS011;35400;45.472;-122.822;2022-09-21T03:53:24;3.30;;;2.83;;
6374;SDS011;35400;45.472;-122.822;2022-09-21T03:55:51;3.65;;;2.97;;
6374;SDS011;35400;45.472;-122.822;2022-09-21T03:58:18;4.07;;;3.33;;
6374;SDS011;35400;45.472;-122.822;2022-09-21T04:00:44;4.60;;;3.20;;
6374;SDS011;35400;45.472;-122.822;2022-09-21T04:03:12;3.42;;;3.13;;
6374;SDS011;35400;45.472;-122.822;2022-09-21T04:05:38;4.80;;;2.97;;
6374;SDS011;35400;45.472;-122.822;2022-09-21T04:08:05;6.30;;;3.37;;
6374;SDS011;35400;45.472;-122.822;2022-09-21T04:10:33;5.57;;;3.57;;
6374;SDS011;35400;45.472;-122.822;2022-09-21T04:13:01;6.73;;;4.27;;
6374;SDS011;35400;45.472;-122.822;2022-09-21T04:15:29;5.57;;;4.50;;
6374;SDS011;35400;45.472;-122.822;2022-09-21T04:17:56;6.97;;;4.73;;
6374;SDS011;35400;45.472;-122.822;2022-09-21T04:20:23;7.13;;;5.17;;
6374;SDS011;35400;45.472;-122.822;2022-09-21T04:22:50;7.53;;;6.27;;
6374;SDS011;35400;45.472;-122.822;2022-09-21T04:25:17;4.03;;;3.63;;
6374;SDS011;35400;45.472;-122.822;2022-09-21T04:27:45;8.23;;;4.40;;
6374;SDS011;35400;45.472;-122.822;2022-09-21T04:30:12;6.10;;;3.90;;
6374;SDS011;35400;45.472;-122.822;2022-09-21T04:32:40;8.00;;;4.27;;
6374;SDS011;35400;45.472;-122.822;2022-09-21T04:35:07;9.03;;;4.00;;
6374;SDS011;35400;45.472;-122.822;2022-09-21T04:37:35;8.27;;;4.60;;
6374;SDS011;35400;45.472;-122.822;2022-09-21T04:40:02;6.60;;;4.90;;
6374;SDS011;35400;45.472;-122.822;2022-09-21T04:42:30;10.13;;;5.00;;
6374;SDS011;35400;45.472;-122.822;2022-09-21T04:44:56;9.27;;;5.20;;
6374;SDS011;35400;45.472;-122.822;2022-09-21T04:47:23;8.43;;;5.03;;
6374;SDS011;35400;45.472;-122.822;2022-09-21T04:49:50;9.67;;;5.90;;
6374;SDS011;35400;45.472;-122.822;2022-09-21T04:52:18;10.33;;;5.47;;
6374;SDS011;35400;45.472;-122.822;2022-09-21T04:54:45;12.30;;;5.00;;
6374;SDS011;35400;45.472;-122.822;2022-09-21T04:57:12;8.73;;;5.20;;
6374;SDS011;35400;45.472;-122.822;2022-09-21T04:59:39;9.17;;;5.63;;
6374;SDS011;35400;45.472;-122.822;2022-09-21T05:02:06;10.03;;;5.80;;
6374;SDS011;35400;45.472;-122.822;2022-09-21T05:04:33;6.30;;;5.33;;
6374;SDS011;35400;45.472;-122.822;2022-09-21T05:07:00;10.63;;;5.80;;
6374;SDS011;35400;45.472;-122.822;2022-09-21T05:09:27;9.50;;;5.60;;
6374;SDS011;35400;45.472;-122.822;2022-09-21T05:12:12;12.83;;;6.03;;
6374;SDS011;35400;45.472;-122.822;2022-09-21T05:14:39;7.97;;;5.47;;
6374;SDS011;35400;45.472;-122.822;2022-09-21T05:17:08;11.57;;;6.40;;
6374;SDS011;35400;45.472;-122.822;2022-09-21T05:19:36;10.10;;;5.93;;
6374;SDS011;35400;45.472;-122.822;2022-09-21T05:22:03;10.57;;;6.63;;
6374;SDS011;35400;45.472;-122.822;2022-09-21T05:24:29;15.83;;;7.30;;
6374;SDS011;35400;45.472;-122.822;2022-09-21T05:26:56;13.03;;;8.20;;
6374;SDS011;35400;45.472;-122.822;2022-09-21T05:29:23;13.30;;;8.83;;
6374;SDS011;35400;45.472;-122.822;2022-09-21T05:31:56;14.60;;;8.37;;
6374;SDS011;35400;45.472;-122.822;2022-09-21T05:37:39;14.57;;;9.33;;
6374;SDS011;35400;45.472;-122.822;2022-09-21T05:40:09;14.57;;;9.53;;
6374;SDS011;35400;45.472;-122.822;2022-09-21T05:42:37;13.63;;;9.53;;
6374;SDS011;35400;45.472;-122.822;2022-09-21T05:45:04;20.67;;;9.73;;
6374;SDS011;35400;45.472;-122.822;2022-09-21T05:56:20;13.23;;;9.50;;
6374;SDS011;35400;45.472;-122.822;2022-09-21T06:02:04;13.50;;;9.60;;
6374;SDS011;35400;45.472;-122.822;2022-09-21T06:04:44;22.10;;;10.70;;
6374;SDS011;35400;45.472;-122.822;2022-09-21T06:07:14;18.57;;;10.97;;
6374;SDS011;35400;45.472;-122.822;2022-09-21T06:09:40;12.90;;;9.57;;
6374;SDS011;35400;45.472;-122.822;2022-09-21T06:12:07;16.00;;;10.93;;
6374;SDS011;35400;45.472;-122.822;2022-09-21T06:14:36;17.90;;;10.63;;
6374;SDS011;35400;45.472;-122.822;2022-09-21T06:17:03;17.07;;;10.70;;
6374;SDS011;35400;45.472;-122.822;2022-09-21T06:19:30;16.57;;;10.77;;
6374;SDS011;35400;45.472;-122.822;2022-09-21T06:21:57;12.73;;;10.77;;
6374;SDS011;35400;45.472;-122.822;2022-09-21T06:24:23;12.03;;;10.07;;
6374;SDS011;35400;45.472;-122.822;2022-09-21T06:26:50;15.60;;;10.90;;
6374;SDS011;35400;45.472;-122.822;2022-09-21T06:29:17;15.07;;;9.67;;
6374;SDS011;35400;45.472;-122.822;2022-09-21T06:31:48;19.87;;;10.87;;
6374;SDS011;35400;45.472;-122.822;2022-09-21T06:34:16;14.83;;;11.17;;
6374;SDS011;35400;45.472;-122.822;2022-09-21T06:36:43;16.77;;;10.10;;
6374;SDS011;35400;45.472;-122.822;2022-09-21T06:39:13;11.77;;;10.07;;
6374;SDS011;35400;45.472;-122.822;2022-09-21T06:41:39;17.80;;;11.40;;
6374;SDS011;35400;45.472;-122.822;2022-09-21T06:44:08;12.97;;;11.00;;
6374;SDS011;35400;45.472;-122.822;2022-09-21T06:46:35;18.00;;;10.83;;
6374;SDS011;35400;45.472;-122.822;2022-09-21T06:49:02;14.77;;;10.70;;
6374;SDS011;35400;45.472;-122.822;2022-09-21T06:51:29;15.83;;;10.97;;
6374;SDS011;35400;45.472;-122.822;2022-09-21T06:53:57;15.13;;;11.10;;
6374;SDS011;35400;45.472;-122.822;2022-09-21T06:56:24;15.30;;;10.87;;
6374;SDS011;35400;45.472;-122.822;2022-09-21T06:58:51;17.37;;;10.80;;
6374;SDS011;35400;45.472;-122.822;2022-09-21T07:01:19;14.50;;;10.63;;
6374;SDS011;35400;45.472;-122.822;2022-09-21T07:03:49;14.63;;;10.20;;
6374;SDS011;35400;45.472;-122.822;2022-09-21T07:06:17;11.87;;;10.60;;
6374;SDS011;35400;45.472;-122.822;2022-09-21T07:08:45;18.00;;;10.97;;
6374;SDS011;35400;45.472;-122.822;2022-09-21T07:11:12;14.40;;;10.37;;
6374;SDS011;35400;45.472;-122.822;2022-09-21T07:13:39;15.50;;;10.90;;
6374;SDS011;35400;45.472;-122.822;2022-09-21T07:16:07;13.93;;;10.33;;
6374;SDS011;35400;45.472;-122.822;2022-09-21T07:18:35;13.00;;;10.23;;
6374;SDS011;35400;45.472;-122.822;2022-09-21T07:21:04;12.90;;;9.97;;
6374;SDS011;35400;45.472;-122.822;2022-09-21T07:23:32;14.17;;;10.70;;
6374;SDS011;35400;45.472;-122.822;2022-09-21T07:26:00;11.87;;;9.60;;
6374;SDS011;35400;45.472;-122.822;2022-09-21T07:28:32;17.77;;;10.67;;
6374;SDS011;35400;45.472;-122.822;2022-09-21T07:31:06;13.20;;;10.80;;
6374;SDS011;35400;45.472;-122.822;2022-09-21T07:33:34;12.97;;;10.20;;
6374;SDS011;35400;45.472;-122.822;2022-09-21T07:36:02;14.23;;;10.73;;
6374;SDS011;35400;45.472;-122.822;2022-09-21T07:38:35;14.23;;;10.00;;
6374;SDS011;35400;45.472;-122.822;2022-09-21T07:41:05;15.03;;;10.80;;
6374;SDS011;35400;45.472;-122.822;2022-09-21T07:43:32;15.10;;;10.43;;
6374;SDS011;35400;45.472;-122.822;2022-09-21T07:45:59;15.63;;;10.73;;
6374;SDS011;35400;45.472;-122.822;2022-09-21T07:48:27;14.40;;;10.63;;
6374;SDS011;35400;45.472;-122.822;2022-09-21T07:50:54;14.50;;;9.87;;
6374;SDS011;35400;45.472;-122.822;2022-09-21T07:53:25;13.10;;;9.70;;
6374;SDS011;35400;45.472;-122.822;2022-09-21T07:55:51;13.40;;;10.13;;
6374;SDS011;35400;45.472;-122.822;2022-09-21T07:58:18;19.60;;;11.97;;
6374;SDS011;35400;45.472;-122.822;2022-09-21T08:01:04;13.37;;;10.10;;
6374;SDS011;35400;45.472;-122.822;2022-09-21T08:03:31;15.10;;;10.63;;
6374;SDS011;35400;45.472;-122.822;2022-09-21T08:05:58;13.40;;;10.53;;
6374;SDS011;35400;45.472;-122.822;2022-09-21T08:08:25;14.37;;;10.10;;
6374;SDS011;35400;45.472;-122.822;2022-09-21T08:10:52;14.07;;;9.60;;
6374;SDS011;35400;45.472;-122.822;2022-09-21T08:13:19;14.00;;;10.03;;
6374;SDS011;35400;45.472;-122.822;2022-09-21T08:15:46;13.67;;;10.70;;
6374;SDS011;35400;45.472;-122.822;2022-09-21T08:18:13;14.23;;;10.63;;
6374;SDS011;35400;45.472;-122.822;2022-09-21T08:20:39;14.97;;;10.07;;
6374;SDS011;35400;45.472;-122.822;2022-09-21T08:23:06;14.17;;;10.53;;
6374;SDS011;35400;45.472;-122.822;2022-09-21T08:25:34;17.73;;;10.60;;
6374;SDS011;35400;45.472;-122.822;2022-09-21T08:28:01;12.23;;;9.93;;
6374;SDS011;35400;45.472;-122.822;2022-09-21T08:30:28;13.23;;;10.33;;
6374;SDS011;35400;45.472;-122.822;2022-09-21T08:32:56;13.23;;;9.97;;
6374;SDS011;35400;45.472;-122.822;2022-09-21T08:35:23;13.37;;;9.80;;
6374;SDS011;35400;45.472;-122.822;2022-09-21T08:37:52;12.77;;;10.13;;
6374;SDS011;35400;45.472;-122.822;2022-09-21T08:40:19;12.63;;;9.73;;
6374;SDS011;35400;45.472;-122.822;2022-09-21T08:45:16;13.23;;;10.03;;
6374;SDS011;35400;45.472;-122.822;2022-09-21T08:47:46;13.07;;;10.17;;
6374;SDS011;35400;45.472;-122.822;2022-09-21T08:53:18;15.23;;;10.63;;
6374;SDS011;35400;45.472;-122.822;2022-09-21T08:55:57;15.77;;;10.73;;
6374;SDS011;35400;45.472;-122.822;2022-09-21T08:58:28;16.40;;;10.30;;
6374;SDS011;35400;45.472;-122.822;2022-09-21T09:03:51;11.90;;;9.90;;
6374;SDS011;35400;45.472;-122.822;2022-09-21T09:09:28;15.57;;;10.27;;
6374;SDS011;35400;45.472;-122.822;2022-09-21T09:20:27;15.30;;;11.60;;
6374;SDS011;35400;45.472;-122.822;2022-09-21T09:25:27;10.87;;;9.67;;
6374;SDS011;35400;45.472;-122.822;2022-09-21T09:28:04;13.27;;;10.77;;
6374;SDS011;35400;45.472;-122.822;2022-09-21T09:31:00;15.00;;;10.00;;
6374;SDS011;35400;45.472;-122.822;2022-09-21T09:36:10;14.87;;;10.57;;
6374;SDS011;35400;45.472;-122.822;2022-09-21T09:38:51;13.93;;;9.67;;
6374;SDS011;35400;45.472;-122.822;2022-09-21T09:44:15;12.10;;;9.83;;
6374;SDS011;35400;45.472;-122.822;2022-09-21T09:52:37;14.60;;;9.63;;
6374;SDS011;35400;45.472;-122.822;2022-09-21T09:57:49;14.83;;;9.60;;
6374;SDS011;35400;45.472;-122.822;2022-09-21T10:00:17;13.67;;;9.83;;
6374;SDS011;35400;45.472;-122.822;2022-09-21T10:02:47;14.47;;;10.10;;
6374;SDS011;35400;45.472;-122.822;2022-09-21T10:05:30;15.47;;;9.93;;
6374;SDS011;35400;45.472;-122.822;2022-09-21T10:08:07;12.13;;;9.40;;
6374;SDS011;35400;45.472;-122.822;2022-09-21T10:11:14;14.00;;;10.70;;
6374;SDS011;35400;45.472;-122.822;2022-09-21T10:13:42;12.13;;;10.40;;
6374;SDS011;35400;45.472;-122.822;2022-09-21T10:16:13;14.33;;;10.13;;
6374;SDS011;35400;45.472;-122.822;2022-09-21T10:21:25;12.97;;;10.57;;
6374;SDS011;35400;45.472;-122.822;2022-09-21T10:26:46;12.93;;;10.17;;
6374;SDS011;35400;45.472;-122.822;2022-09-21T10:32:03;11.57;;;9.80;;
6374;SDS011;35400;45.472;-122.822;2022-09-21T10:37:34;11.50;;;9.17;;
6374;SDS011;35400;45.472;-122.822;2022-09-21T10:40:27;13.13;;;9.80;;
6374;SDS011;35400;45.472;-122.822;2022-09-21T10:42:55;11.80;;;9.63;;
6374;SDS011;35400;45.472;-122.822;2022-09-21T10:45:26;11.87;;;9.03;;
6374;SDS011;35400;45.472;-122.822;2022-09-21T10:48:14;13.47;;;10.00;;
6374;SDS011;35400;45.472;-122.822;2022-09-21T10:50:44;11.23;;;9.13;;
6374;SDS011;35400;45.472;-122.822;2022-09-21T10:53:24;13.47;;;9.83;;
6374;SDS011;35400;45.472;-122.822;2022-09-21T11:01:49;12.10;;;8.77;;
6374;SDS011;35400;45.472;-122.822;2022-09-21T11:04:51;16.43;;;9.87;;
6374;SDS011;35400;45.472;-122.822;2022-09-21T11:07:15;14.37;;;9.30;;
6374;SDS011;35400;45.472;-122.822;2022-09-21T11:10:18;12.67;;;9.33;;
6374;SDS011;35400;45.472;-122.822;2022-09-21T11:16:17;13.63;;;9.47;;
6374;SDS011;35400;45.472;-122.822;2022-09-21T11:18:50;12.50;;;9.07;;
6374;SDS011;35400;45.472;-122.822;2022-09-21T11:21:40;12.60;;;10.07;;
6374;SDS011;35400;45.472;-122.822;2022-09-21T11:26:58;12.07;;;9.17;;
6374;SDS011;35400;45.472;-122.822;2022-09-21T11:32:18;14.13;;;9.80;;
6374;SDS011;35400;45.472;-122.822;2022-09-21T11:37:48;10.97;;;8.43;;
6374;SDS011;35400;45.472;-122.822;2022-09-21T11:40:29;14.10;;;9.57;;
6374;SDS011;35400;45.472;-122.822;2022-09-21T11:43:19;16.20;;;9.10;;
6374;SDS011;35400;45.472;-122.822;2022-09-21T12:08:10;11.57;;;9.10;;
6374;SDS011;35400;45.472;-122.822;2022-09-21T12:12:00;12.80;;;9.13;;
6374;SDS011;35400;45.472;-122.822;2022-09-21T12:16:47;11.70;;;8.77;;
6374;SDS011;35400;45.472;-122.822;2022-09-21T12:22:48;10.53;;;8.40;;
6374;SDS011;35400;45.472;-122.822;2022-09-21T12:24:57;9.50;;;7.97;;
6374;SDS011;35400;45.472;-122.822;2022-09-21T12:27:49;13.30;;;8.70;;
6374;SDS011;35400;45.472;-122.822;2022-09-21T12:30:23;11.63;;;8.10;;
6374;SDS011;35400;45.472;-122.822;2022-09-21T12:32:56;13.20;;;8.93;;
6374;SDS011;35400;45.472;-122.822;2022-09-21T12:38:11;10.67;;;8.30;;
6374;SDS011;35400;45.472;-122.822;2022-09-21T12:40:44;12.03;;;8.70;;
6374;SDS011;35400;45.472;-122.822;2022-09-21T12:43:27;11.43;;;8.57;;
6374;SDS011;35400;45.472;-122.822;2022-09-21T12:48:36;13.77;;;8.07;;
6374;SDS011;35400;45.472;-122.822;2022-09-21T12:51:15;10.27;;;8.33;;
6374;SDS011;35400;45.472;-122.822;2022-09-21T12:53:53;11.30;;;8.60;;
6374;SDS011;35400;45.472;-122.822;2022-09-21T12:59:42;12.83;;;8.80;;
6374;SDS011;35400;45.472;-122.822;2022-09-21T13:08:13;12.10;;;8.37;;
6374;SDS011;35400;45.472;-122.822;2022-09-21T13:10:55;11.60;;;8.70;;
6374;SDS011;35400;45.472;-122.822;2022-09-21T13:13:27;9.70;;;8.13;;
6374;SDS011;35400;45.472;-122.822;2022-09-21T13:15:57;11.80;;;8.67;;
6374;SDS011;35400;45.472;-122.822;2022-09-21T13:18:35;11.43;;;8.73;;
6374;SDS011;35400;45.472;-122.822;2022-09-21T13:21:14;9.30;;;8.33;;
6374;SDS011;35400;45.472;-122.822;2022-09-21T13:23:50;12.43;;;8.47;;
6374;SDS011;35400;45.472;-122.822;2022-09-21T13:47:41;9.30;;;7.90;;
6374;SDS011;35400;45.472;-122.822;2022-09-21T13:52:58;12.67;;;8.77;;
6374;SDS011;35400;45.472;-122.822;2022-09-21T13:58:00;11.17;;;8.47;;
6374;SDS011;35400;45.472;-122.822;2022-09-21T14:00:41;10.83;;;8.07;;
6374;SDS011;35400;45.472;-122.822;2022-09-21T14:06:00;11.87;;;8.20;;
6374;SDS011;35400;45.472;-122.822;2022-09-21T14:08:32;9.13;;;7.90;;
6374;SDS011;35400;45.472;-122.822;2022-09-21T14:11:06;9.63;;;8.37;;
6374;SDS011;35400;45.472;-122.822;2022-09-21T14:13:39;8.73;;;7.83;;
6374;SDS011;35400;45.472;-122.822;2022-09-21T14:19:00;12.97;;;8.67;;
6374;SDS011;35400;45.472;-122.822;2022-09-21T14:21:29;13.60;;;8.43;;
6374;SDS011;35400;45.472;-122.822;2022-09-21T14:26:59;10.87;;;7.77;;
6374;SDS011;35400;45.472;-122.822;2022-09-21T14:29:43;8.87;;;7.60;;
6374;SDS011;35400;45.472;-122.822;2022-09-21T14:32:18;8.63;;;7.70;;
6374;SDS011;35400;45.472;-122.822;2022-09-21T14:34:49;10.43;;;8.10;;
6374;SDS011;35400;45.472;-122.822;2022-09-21T14:37:31;9.43;;;8.13;;
6374;SDS011;35400;45.472;-122.822;2022-09-21T14:40:21;11.20;;;8.13;;
6374;SDS011;35400;45.472;-122.822;2022-09-21T14:42:53;9.67;;;8.03;;
6374;SDS011;35400;45.472;-122.822;2022-09-21T14:45:57;10.23;;;7.43;;
6374;SDS011;35400;45.472;-122.822;2022-09-21T14:51:08;10.93;;;7.83;;
6374;SDS011;35400;45.472;-122.822;2022-09-21T15:02:39;14.23;;;7.63;;
6374;SDS011;35400;45.472;-122.822;2022-09-21T15:05:20;11.90;;;7.67;;
6374;SDS011;35400;45.472;-122.822;2022-09-21T15:08:23;14.37;;;7.40;;
6374;SDS011;35400;45.472;-122.822;2022-09-21T15:21:55;9.27;;;6.27;;
6374;SDS011;35400;45.472;-122.822;2022-09-21T15:24:51;8.73;;;6.20;;
6374;SDS011;35400;45.472;-122.822;2022-09-21T15:27:20;9.13;;;6.40;;
6374;SDS011;35400;45.472;-122.822;2022-09-21T15:29:50;11.30;;;6.00;;
6374;SDS011;35400;45.472;-122.822;2022-09-21T15:32:23;8.23;;;5.97;;
6374;SDS011;35400;45.472;-122.822;2022-09-21T15:35:00;7.80;;;6.07;;
6374;SDS011;35400;45.472;-122.822;2022-09-21T15:37:34;7.67;;;6.40;;
6374;SDS011;35400;45.472;-122.822;2022-09-21T15:40:03;8.33;;;6.10;;
6374;SDS011;35400;45.472;-122.822;2022-09-21T15:42:34;7.13;;;6.00;;
6374;SDS011;35400;45.472;-122.822;2022-09-21T15:45:24;10.37;;;6.77;;
6374;SDS011;35400;45.472;-122.822;2022-09-21T15:48:12;11.03;;;6.57;;
6374;SDS011;35400;45.472;-122.822;2022-09-21T15:50:39;10.03;;;6.67;;
6374;SDS011;35400;45.472;-122.822;2022-09-21T15:53:13;11.93;;;5.97;;
6374;SDS011;35400;45.472;-122.822;2022-09-21T15:55:47;7.30;;;5.83;;
6374;SDS011;35400;45.472;-122.822;2022-09-21T15:58:47;8.57;;;6.13;;
6374;SDS011;35400;45.472;-122.822;2022-09-21T16:01:11;12.33;;;6.27;;
6374;SDS011;35400;45.472;-122.822;2022-09-21T16:03:41;10.13;;;5.80;;
6374;SDS011;35400;45.472;-122.822;2022-09-21T16:06:22;8.37;;;6.23;;
6374;SDS011;35400;45.472;-122.822;2022-09-21T16:08:52;10.10;;;6.30;;
6374;SDS011;35400;45.472;-122.822;2022-09-21T16:11:31;8.47;;;5.97;;
6374;SDS011;35400;45.472;-122.822;2022-09-21T16:14:12;8.37;;;5.77;;
6374;SDS011;35400;45.472;-122.822;2022-09-21T16:19:42;10.97;;;5.70;;
6374;SDS011;35400;45.472;-122.822;2022-09-21T16:22:37;9.33;;;6.03;;
6374;SDS011;35400;45.472;-122.822;2022-09-21T16:25:39;9.23;;;6.07;;
6374;SDS011;35400;45.472;-122.822;2022-09-21T16:30:45;9.03;;;5.90;;
6374;SDS011;35400;45.472;-122.822;2022-09-21T16:38:51;8.37;;;6.50;;
6374;SDS011;35400;45.472;-122.822;2022-09-21T16:41:18;11.03;;;7.00;;
6374;SDS011;35400;45.472;-122.822;2022-09-21T16:43:46;9.37;;;6.27;;
6374;SDS011;35400;45.472;-122.822;2022-09-21T16:46:15;8.50;;;6.33;;
6374;SDS011;35400;45.472;-122.822;2022-09-21T16:48:43;8.83;;;5.97;;
6374;SDS011;35400;45.472;-122.822;2022-09-21T16:51:10;12.70;;;6.83;;
6374;SDS011;35400;45.472;-122.822;2022-09-21T16:53:38;9.60;;;6.33;;
6374;SDS011;35400;45.472;-122.822;2022-09-21T16:56:11;8.47;;;5.87;;
6374;SDS011;35400;45.472;-122.822;2022-09-21T16:58:40;6.03;;;5.20;;
6374;SDS011;35400;45.472;-122.822;2022-09-21T17:01:13;8.77;;;5.73;;
6374;SDS011;35400;45.472;-122.822;2022-09-21T17:03:45;9.30;;;5.60;;
6374;SDS011;35400;45.472;-122.822;2022-09-21T17:06:16;8.07;;;5.17;;
6374;SDS011;35400;45.472;-122.822;2022-09-21T17:08:45;6.77;;;5.30;;
6374;SDS011;35400;45.472;-122.822;2022-09-21T17:11:16;8.63;;;5.83;;
6374;SDS011;35400;45.472;-122.822;2022-09-21T17:13:47;7.40;;;5.00;;
6374;SDS011;35400;45.472;-122.822;2022-09-21T17:16:15;7.53;;;5.20;;
6374;SDS011;35400;45.472;-122.822;2022-09-21T17:18:44;7.67;;;5.17;;
6374;SDS011;35400;45.472;-122.822;2022-09-21T17:21:11;9.83;;;4.97;;
6374;SDS011;35400;45.472;-122.822;2022-09-21T17:23:39;5.77;;;4.83;;
6374;SDS011;35400;45.472;-122.822;2022-09-21T17:26:11;7.83;;;5.00;;
6374;SDS011;35400;45.472;-122.822;2022-09-21T17:28:42;4.83;;;4.27;;
6374;SDS011;35400;45.472;-122.822;2022-09-21T17:31:13;6.27;;;4.60;;
6374;SDS011;35400;45.472;-122.822;2022-09-21T17:33:47;7.70;;;4.20;;
6374;SDS011;35400;45.472;-122.822;2022-09-21T17:36:16;7.17;;;5.07;;
6374;SDS011;35400;45.472;-122.822;2022-09-21T17:38:43;7.40;;;4.57;;
6374;SDS011;35400;45.472;-122.822;2022-09-21T17:49:06;6.17;;;4.23;;
6374;SDS011;35400;45.472;-122.822;2022-09-21T17:51:36;5.33;;;4.13;;
6374;SDS011;35400;45.472;-122.822;2022-09-21T17:54:21;5.33;;;4.20;;
6374;SDS011;35400;45.472;-122.822;2022-09-21T17:57:00;5.70;;;4.37;;
6374;SDS011;35400;45.472;-122.822;2022-09-21T17:59:33;5.77;;;4.80;;
6374;SDS011;35400;45.472;-122.822;2022-09-21T18:02:01;5.77;;;3.93;;
6374;SDS011;35400;45.472;-122.822;2022-09-21T18:04:45;5.03;;;4.13;;
6374;SDS011;35400;45.472;-122.822;2022-09-21T18:07:15;7.27;;;3.97;;
6374;SDS011;35400;45.472;-122.822;2022-09-21T18:09:42;5.67;;;4.40;;
6374;SDS011;35400;45.472;-122.822;2022-09-21T18:14:54;5.50;;;4.00;;
6374;SDS011;35400;45.472;-122.822;2022-09-21T18:17:37;5.80;;;4.43;;
6374;SDS011;35400;45.472;-122.822;2022-09-21T18:20:46;4.00;;;3.60;;
6374;SDS011;35400;45.472;-122.822;2022-09-21T18:26:06;8.20;;;4.72;;
6374;SDS011;35400;45.472;-122.822;2022-09-21T18:28:44;5.78;;;4.65;;
6374;SDS011;35400;45.472;-122.822;2022-09-21T18:34:22;6.20;;;4.90;;
6374;SDS011;35400;45.472;-122.822;2022-09-21T18:42:49;6.73;;;4.57;;
6374;SDS011;35400;45.472;-122.822;2022-09-21T18:45:25;6.83;;;4.97;;